Orel 5 — EMFH — position and weather

sailwx.info

Track history (hours):
 
Tides and Currents Weather Stations Pressure Air Temp Water Temp Dewpoint Dewpoint Depression Visibility Wind Speed Wind Dir Waves Ship Positions

Orel 5

Last reported at 2017-Sep-26 12:30 UTC. Time now 2017-Sep-26 12:57 UTC.
Position N 47°52' E 035°06'.

Length 108 m; draft 2.5 m.

Type: Cargo ship. MMSI: 272059000.

Date/timePositionNaut miles runAvg speedWind from/ knotsBaromVisibWave heightAir tempDewpointWater temp
2017-Sep-26 12:30N 47°52' E 035°06'0 0.0
2017-Sep-26 12:00N 47°52' E 035°06'0 0.0
2017-Sep-26 11:30N 47°52' E 035°06'0 0.0
2017-Sep-26 11:00N 47°52' E 035°06'0 0.0
2017-Sep-26 10:30N 47°52' E 035°06'0 0.0
2017-Sep-26 10:00N 47°52' E 035°06'0 0.0
2017-Sep-26 09:30N 47°52' E 035°06'0 0.0
2017-Sep-26 06:48N 47°52' E 035°06'0 0.0
2017-Sep-26 06:30N 47°52' E 035°06'1 1.6
2017-Sep-26 06:00N 47°52' E 035°05'0 0.4
2017-Sep-26 05:30N 47°52' E 035°05'2 4.8
2017-Sep-26 05:00N 47°50' E 035°07'2 3.8
2017-Sep-26 04:30N 47°48' E 035°09'0 0.0
2017-Sep-26 04:00N 47°48' E 035°09'0 0.0
2017-Sep-26 03:30N 47°48' E 035°09'0 0.0
2017-Sep-26 03:00N 47°48' E 035°09'0 0.0
2017-Sep-26 02:30N 47°48' E 035°09'0 0.0
2017-Sep-26 02:00N 47°48' E 035°09'0 0.0
2017-Sep-26 01:30N 47°48' E 035°09'0 0.0
2017-Sep-26 01:00N 47°48' E 035°09'0 0.0
2017-Sep-26 00:30N 47°48' E 035°09'0 0.0
2017-Sep-26 00:00N 47°48' E 035°09'0 0.0
2017-Sep-25 23:30N 47°48' E 035°09'0 0.0
2017-Sep-25 23:00N 47°48' E 035°09'0 0.0
2017-Sep-25 22:30N 47°48' E 035°09'0 0.0
2017-Sep-25 22:00N 47°48' E 035°09'0 0.0
2017-Sep-25 21:30N 47°48' E 035°09'0 0.0
2017-Sep-25 21:00N 47°48' E 035°09'0 0.0
2017-Sep-25 20:30N 47°48' E 035°09'0 0.0
2017-Sep-25 20:00N 47°48' E 035°09'0 0.0
2017-Sep-25 19:30N 47°48' E 035°09'0 0.0
2017-Sep-25 19:00N 47°48' E 035°09'0 0.0
2017-Sep-25 18:30N 47°48' E 035°09'0 0.0
2017-Sep-25 18:00N 47°48' E 035°09'0 0.0
2017-Sep-25 17:30N 47°48' E 035°09'0 0.0
2017-Sep-25 17:00N 47°48' E 035°09'0 0.0
2017-Sep-25 16:30N 47°48' E 035°09'0 0.5
2017-Sep-25 16:00N 47°48' E 035°10'3 6.8
2017-Sep-25 15:30N 47°45' E 035°10'145 5.8
2017-Sep-24 14:40N 46°32' E 032°06'1 7.8
2017-Sep-24 14:30N 46°32' E 032°04'4 7.7
2017-Sep-24 14:00N 46°33' E 031°58'4 7.6
2017-Sep-24 13:30N 46°35' E 031°53'4 7.6
2017-Sep-24 13:00N 46°36' E 031°48'35 6.8
2017-Sep-24 07:46N 46°32' E 030°57'  
Track history (hours):
 
Tides and Currents Weather Stations Pressure Air Temp Water Temp Dewpoint Dewpoint Depression Visibility Wind Speed Wind Dir Waves Ship Positions

Orel 5

Last reported at 2017-Sep-26 12:30 UTC. Time now 2017-Sep-26 12:57 UTC.
Position N 47°52' E 035°06'.

Length 108 m; draft 2.5 m.

Type: Cargo ship. MMSI: 272059000.

Date/timePositionNaut miles runAvg speedWind from/ knotsBaromVisibWave heightAir tempDewpointWater temp
2017-Sep-26 12:30N 47°52' E 035°06'0 0.0
2017-Sep-26 12:00N 47°52' E 035°06'0 0.0
2017-Sep-26 11:30N 47°52' E 035°06'0 0.0
2017-Sep-26 11:00N 47°52' E 035°06'0 0.0
2017-Sep-26 10:30N 47°52' E 035°06'0 0.0
2017-Sep-26 10:00N 47°52' E 035°06'0 0.0
2017-Sep-26 09:30N 47°52' E 035°06'0 0.0
2017-Sep-26 06:48N 47°52' E 035°06'0 0.0
2017-Sep-26 06:30N 47°52' E 035°06'1 1.6
2017-Sep-26 06:00N 47°52' E 035°05'0 0.4
2017-Sep-26 05:30N 47°52' E 035°05'2 4.8
2017-Sep-26 05:00N 47°50' E 035°07'2 3.8
2017-Sep-26 04:30N 47°48' E 035°09'0 0.0
2017-Sep-26 04:00N 47°48' E 035°09'0 0.0
2017-Sep-26 03:30N 47°48' E 035°09'0 0.0
2017-Sep-26 03:00N 47°48' E 035°09'0 0.0
2017-Sep-26 02:30N 47°48' E 035°09'0 0.0
2017-Sep-26 02:00N 47°48' E 035°09'0 0.0
2017-Sep-26 01:30N 47°48' E 035°09'0 0.0
2017-Sep-26 01:00N 47°48' E 035°09'0 0.0
2017-Sep-26 00:30N 47°48' E 035°09'0 0.0
2017-Sep-26 00:00N 47°48' E 035°09'0 0.0
2017-Sep-25 23:30N 47°48' E 035°09'0 0.0
2017-Sep-25 23:00N 47°48' E 035°09'0 0.0
2017-Sep-25 22:30N 47°48' E 035°09'0 0.0
2017-Sep-25 22:00N 47°48' E 035°09'0 0.0
2017-Sep-25 21:30N 47°48' E 035°09'0 0.0
2017-Sep-25 21:00N 47°48' E 035°09'0 0.0
2017-Sep-25 20:30N 47°48' E 035°09'0 0.0
2017-Sep-25 20:00N 47°48' E 035°09'0 0.0
2017-Sep-25 19:30N 47°48' E 035°09'0 0.0
2017-Sep-25 19:00N 47°48' E 035°09'0 0.0
2017-Sep-25 18:30N 47°48' E 035°09'0 0.0
2017-Sep-25 18:00N 47°48' E 035°09'0 0.0
2017-Sep-25 17:30N 47°48' E 035°09'0 0.0
2017-Sep-25 17:00N 47°48' E 035°09'0 0.0
2017-Sep-25 16:30N 47°48' E 035°09'0 0.5
2017-Sep-25 16:00N 47°48' E 035°10'3 6.8
2017-Sep-25 15:30N 47°45' E 035°10'145 5.8
2017-Sep-24 14:40N 46°32' E 032°06'1 7.8
2017-Sep-24 14:30N 46°32' E 032°04'4 7.7
2017-Sep-24 14:00N 46°33' E 031°58'4 7.6
2017-Sep-24 13:30N 46°35' E 031°53'4 7.6
2017-Sep-24 13:00N 46°36' E 031°48'35 6.8
2017-Sep-24 07:46N 46°32' E 030°57'  

Dump ship's entire track history